sensor_id;sensor_type;location;lat;lon;timestamp;temperature;humidity
55711;DHT22;41612;51.994;5.880;2024-02-26T00:02:21;6.90;86.20
55711;DHT22;41612;51.994;5.880;2024-02-26T00:04:50;6.90;86.20
55711;DHT22;41612;51.994;5.880;2024-02-26T00:07:16;6.90;86.20
55711;DHT22;41612;51.994;5.880;2024-02-26T00:09:44;6.90;85.90
55711;DHT22;41612;51.994;5.880;2024-02-26T00:12:14;6.90;85.90
55711;DHT22;41612;51.994;5.880;2024-02-26T00:14:43;6.90;85.90
55711;DHT22;41612;51.994;5.880;2024-02-26T00:17:10;6.90;85.80
55711;DHT22;41612;51.994;5.880;2024-02-26T00:19:36;6.90;85.80
55711;DHT22;41612;51.994;5.880;2024-02-26T00:22:02;6.90;85.80
55711;DHT22;41612;51.994;5.880;2024-02-26T00:24:31;6.90;85.90
55711;DHT22;41612;51.994;5.880;2024-02-26T00:26:56;6.90;86.00
55711;DHT22;41612;51.994;5.880;2024-02-26T00:29:24;6.90;85.50
55711;DHT22;41612;51.994;5.880;2024-02-26T00:32:03;6.80;85.70
55711;DHT22;41612;51.994;5.880;2024-02-26T00:34:29;6.80;85.70
55711;DHT22;41612;51.994;5.880;2024-02-26T00:37:01;6.80;85.60
55711;DHT22;41612;51.994;5.880;2024-02-26T00:39:27;6.80;85.70
55711;DHT22;41612;51.994;5.880;2024-02-26T00:41:59;6.80;85.80
55711;DHT22;41612;51.994;5.880;2024-02-26T00:44:26;6.80;85.60
55711;DHT22;41612;51.994;5.880;2024-02-26T00:46:51;6.80;85.70
55711;DHT22;41612;51.994;5.880;2024-02-26T00:49:20;6.80;85.70
55711;DHT22;41612;51.994;5.880;2024-02-26T00:51:51;6.80;85.70
55711;DHT22;41612;51.994;5.880;2024-02-26T00:54:17;6.80;85.70
55711;DHT22;41612;51.994;5.880;2024-02-26T00:56:51;6.80;85.70
55711;DHT22;41612;51.994;5.880;2024-02-26T00:59:17;6.90;85.70
55711;DHT22;41612;51.994;5.880;2024-02-26T01:01:46;6.80;85.50
55711;DHT22;41612;51.994;5.880;2024-02-26T01:04:22;6.80;85.50
55711;DHT22;41612;51.994;5.880;2024-02-26T01:06:50;6.80;85.50
55711;DHT22;41612;51.994;5.880;2024-02-26T01:09:16;6.80;85.40
55711;DHT22;41612;51.994;5.880;2024-02-26T01:11:46;6.90;85.40
55711;DHT22;41612;51.994;5.880;2024-02-26T01:14:15;6.80;85.20
55711;DHT22;41612;51.994;5.880;2024-02-26T01:16:41;6.80;85.40
55711;DHT22;41612;51.994;5.880;2024-02-26T01:19:07;6.80;85.40
55711;DHT22;41612;51.994;5.880;2024-02-26T01:21:33;6.80;85.50
55711;DHT22;41612;51.994;5.880;2024-02-26T01:24:03;6.80;85.50
55711;DHT22;41612;51.994;5.880;2024-02-26T01:26:34;6.70;85.50
55711;DHT22;41612;51.994;5.880;2024-02-26T01:29:02;6.70;85.50
55711;DHT22;41612;51.994;5.880;2024-02-26T01:31:31;6.70;85.70
55711;DHT22;41612;51.994;5.880;2024-02-26T01:34:01;6.70;85.60
55711;DHT22;41612;51.994;5.880;2024-02-26T01:36:32;6.70;85.50
55711;DHT22;41612;51.994;5.880;2024-02-26T01:38:57;6.70;85.70
55711;DHT22;41612;51.994;5.880;2024-02-26T01:41:28;6.70;85.60
55711;DHT22;41612;51.994;5.880;2024-02-26T01:43:57;6.70;85.80
55711;DHT22;41612;51.994;5.880;2024-02-26T01:46:23;6.70;85.90
55711;DHT22;41612;51.994;5.880;2024-02-26T01:48:51;6.70;85.90
55711;DHT22;41612;51.994;5.880;2024-02-26T01:51:17;6.70;85.80
55711;DHT22;41612;51.994;5.880;2024-02-26T01:53:50;6.70;85.50
55711;DHT22;41612;51.994;5.880;2024-02-26T01:56:17;6.60;85.80
55711;DHT22;41612;51.994;5.880;2024-02-26T01:58:44;6.70;86.00
55711;DHT22;41612;51.994;5.880;2024-02-26T02:01:11;6.60;85.80
55711;DHT22;41612;51.994;5.880;2024-02-26T02:03:45;6.60;85.20
55711;DHT22;41612;51.994;5.880;2024-02-26T02:06:14;6.70;85.70
55711;DHT22;41612;51.994;5.880;2024-02-26T02:08:43;6.60;85.10
55711;DHT22;41612;51.994;5.880;2024-02-26T02:11:09;6.60;85.60
55711;DHT22;41612;51.994;5.880;2024-02-26T02:13:37;6.70;85.50
55711;DHT22;41612;51.994;5.880;2024-02-26T02:16:06;6.70;85.40
55711;DHT22;41612;51.994;5.880;2024-02-26T02:18:35;6.60;85.30
55711;DHT22;41612;51.994;5.880;2024-02-26T02:21:01;6.70;85.50
55711;DHT22;41612;51.994;5.880;2024-02-26T02:23:29;6.70;85.50
55711;DHT22;41612;51.994;5.880;2024-02-26T02:25:57;6.70;85.50
55711;DHT22;41612;51.994;5.880;2024-02-26T02:28:28;6.70;85.50
55711;DHT22;41612;51.994;5.880;2024-02-26T02:30:55;6.70;85.30
55711;DHT22;41612;51.994;5.880;2024-02-26T02:33:24;6.70;85.30
55711;DHT22;41612;51.994;5.880;2024-02-26T02:35:50;6.70;85.20
55711;DHT22;41612;51.994;5.880;2024-02-26T02:38:25;6.70;85.20
55711;DHT22;41612;51.994;5.880;2024-02-26T02:41:00;6.70;85.20
55711;DHT22;41612;51.994;5.880;2024-02-26T02:43:29;6.80;85.20
55711;DHT22;41612;51.994;5.880;2024-02-26T02:45:55;6.70;85.00
55711;DHT22;41612;51.994;5.880;2024-02-26T02:48:20;6.80;85.10
55711;DHT22;41612;51.994;5.880;2024-02-26T02:50:46;6.80;84.80
55711;DHT22;41612;51.994;5.880;2024-02-26T02:53:23;6.70;84.80
55711;DHT22;41612;51.994;5.880;2024-02-26T02:55:52;6.80;84.90
55711;DHT22;41612;51.994;5.880;2024-02-26T02:58:18;6.80;84.70
55711;DHT22;41612;51.994;5.880;2024-02-26T03:00:43;6.80;84.80
55711;DHT22;41612;51.994;5.880;2024-02-26T03:03:12;6.80;84.70
55711;DHT22;41612;51.994;5.880;2024-02-26T03:05:40;6.80;84.70
55711;DHT22;41612;51.994;5.880;2024-02-26T03:08:08;6.80;84.70
55711;DHT22;41612;51.994;5.880;2024-02-26T03:10:37;6.80;84.60
55711;DHT22;41612;51.994;5.880;2024-02-26T03:13:08;6.80;84.60
55711;DHT22;41612;51.994;5.880;2024-02-26T03:15:33;6.80;84.10
55711;DHT22;41612;51.994;5.880;2024-02-26T03:18:10;6.80;84.20
55711;DHT22;41612;51.994;5.880;2024-02-26T03:20:36;6.80;84.10
55711;DHT22;41612;51.994;5.880;2024-02-26T03:23:05;6.80;84.40
55711;DHT22;41612;51.994;5.880;2024-02-26T03:25:33;6.80;84.20
55711;DHT22;41612;51.994;5.880;2024-02-26T03:27:59;6.80;84.20
55711;DHT22;41612;51.994;5.880;2024-02-26T03:30:27;6.80;84.50
55711;DHT22;41612;51.994;5.880;2024-02-26T03:32:54;6.80;84.40
55711;DHT22;41612;51.994;5.880;2024-02-26T03:35:20;6.80;84.50
55711;DHT22;41612;51.994;5.880;2024-02-26T03:37:49;6.70;84.30
55711;DHT22;41612;51.994;5.880;2024-02-26T03:40:17;6.70;84.50
55711;DHT22;41612;51.994;5.880;2024-02-26T03:42:47;6.70;84.70
55711;DHT22;41612;51.994;5.880;2024-02-26T03:45:23;6.70;84.80
55711;DHT22;41612;51.994;5.880;2024-02-26T03:47:52;6.70;84.90
55711;DHT22;41612;51.994;5.880;2024-02-26T03:50:20;6.70;84.90
55711;DHT22;41612;51.994;5.880;2024-02-26T03:52:46;6.70;84.90
55711;DHT22;41612;51.994;5.880;2024-02-26T03:55:15;6.70;85.00
55711;DHT22;41612;51.994;5.880;2024-02-26T03:57:53;6.70;85.10
55711;DHT22;41612;51.994;5.880;2024-02-26T04:00:27;6.70;85.20
55711;DHT22;41612;51.994;5.880;2024-02-26T04:02:55;6.60;85.30
55711;DHT22;41612;51.994;5.880;2024-02-26T04:05:27;6.60;85.50
55711;DHT22;41612;51.994;5.880;2024-02-26T04:07:57;6.60;85.50
55711;DHT22;41612;51.994;5.880;2024-02-26T04:10:26;6.60;85.60
55711;DHT22;41612;51.994;5.880;2024-02-26T04:12:56;6.50;85.70
55711;DHT22;41612;51.994;5.880;2024-02-26T04:15:22;6.50;85.80
55711;DHT22;41612;51.994;5.880;2024-02-26T04:17:51;6.50;85.80
55711;DHT22;41612;51.994;5.880;2024-02-26T04:20:19;6.50;85.80
55711;DHT22;41612;51.994;5.880;2024-02-26T04:22:50;6.50;85.90
55711;DHT22;41612;51.994;5.880;2024-02-26T04:25:17;6.50;86.00
55711;DHT22;41612;51.994;5.880;2024-02-26T04:27:43;6.50;85.90
55711;DHT22;41612;51.994;5.880;2024-02-26T04:30:10;6.40;85.90
55711;DHT22;41612;51.994;5.880;2024-02-26T04:32:35;6.40;86.00
55711;DHT22;41612;51.994;5.880;2024-02-26T04:35:02;6.40;86.10
55711;DHT22;41612;51.994;5.880;2024-02-26T04:37:28;6.40;86.20
55711;DHT22;41612;51.994;5.880;2024-02-26T04:40:00;6.40;86.20
55711;DHT22;41612;51.994;5.880;2024-02-26T04:42:29;6.40;86.20
55711;DHT22;41612;51.994;5.880;2024-02-26T04:45:01;6.40;86.20
55711;DHT22;41612;51.994;5.880;2024-02-26T04:47:32;6.30;86.30
55711;DHT22;41612;51.994;5.880;2024-02-26T04:50:00;6.30;86.30
55711;DHT22;41612;51.994;5.880;2024-02-26T04:52:32;6.30;86.30
55711;DHT22;41612;51.994;5.880;2024-02-26T04:54:57;6.30;86.30
55711;DHT22;41612;51.994;5.880;2024-02-26T04:57:27;6.30;86.40
55711;DHT22;41612;51.994;5.880;2024-02-26T04:59:53;6.30;86.30
55711;DHT22;41612;51.994;5.880;2024-02-26T05:02:19;6.30;86.30
55711;DHT22;41612;51.994;5.880;2024-02-26T05:04:45;6.30;86.40
55711;DHT22;41612;51.994;5.880;2024-02-26T05:07:11;6.30;86.50
55711;DHT22;41612;51.994;5.880;2024-02-26T05:09:38;6.20;86.50
55711;DHT22;41612;51.994;5.880;2024-02-26T05:12:04;6.20;86.60
55711;DHT22;41612;51.994;5.880;2024-02-26T05:14:30;6.20;86.50
55711;DHT22;41612;51.994;5.880;2024-02-26T05:17:07;6.20;86.50
55711;DHT22;41612;51.994;5.880;2024-02-26T05:19:35;6.30;86.60
55711;DHT22;41612;51.994;5.880;2024-02-26T05:22:01;6.30;86.60
55711;DHT22;41612;51.994;5.880;2024-02-26T05:24:27;6.20;86.70
55711;DHT22;41612;51.994;5.880;2024-02-26T05:26:53;6.20;86.70
55711;DHT22;41612;51.994;5.880;2024-02-26T05:29:22;6.20;86.70
55711;DHT22;41612;51.994;5.880;2024-02-26T05:31:51;6.20;86.70
55711;DHT22;41612;51.994;5.880;2024-02-26T05:34:22;6.20;86.70
55711;DHT22;41612;51.994;5.880;2024-02-26T05:36:48;6.20;86.70
55711;DHT22;41612;51.994;5.880;2024-02-26T05:39:18;6.20;86.70
55711;DHT22;41612;51.994;5.880;2024-02-26T05:41:50;6.20;86.80
55711;DHT22;41612;51.994;5.880;2024-02-26T05:44:22;6.20;86.70
55711;DHT22;41612;51.994;5.880;2024-02-26T05:46:50;6.20;86.80
55711;DHT22;41612;51.994;5.880;2024-02-26T05:49:24;6.20;86.80
55711;DHT22;41612;51.994;5.880;2024-02-26T05:51:58;6.20;86.90
55711;DHT22;41612;51.994;5.880;2024-02-26T05:54:26;6.20;86.90
55711;DHT22;41612;51.994;5.880;2024-02-26T05:56:54;6.20;86.90
55711;DHT22;41612;51.994;5.880;2024-02-26T05:59:20;6.20;86.90
55711;DHT22;41612;51.994;5.880;2024-02-26T06:01:52;6.20;86.90
55711;DHT22;41612;51.994;5.880;2024-02-26T06:04:17;6.20;87.00
55711;DHT22;41612;51.994;5.880;2024-02-26T06:06:46;6.10;86.90
55711;DHT22;41612;51.994;5.880;2024-02-26T06:09:12;6.10;87.00
55711;DHT22;41612;51.994;5.880;2024-02-26T06:11:41;6.20;87.00
55711;DHT22;41612;51.994;5.880;2024-02-26T06:14:09;6.20;87.00
55711;DHT22;41612;51.994;5.880;2024-02-26T06:16:35;6.10;86.90
55711;DHT22;41612;51.994;5.880;2024-02-26T06:19:01;6.10;87.10
55711;DHT22;41612;51.994;5.880;2024-02-26T06:21:30;6.10;86.90
55711;DHT22;41612;51.994;5.880;2024-02-26T06:23:58;6.20;87.10
55711;DHT22;41612;51.994;5.880;2024-02-26T06:26:24;6.10;87.00
55711;DHT22;41612;51.994;5.880;2024-02-26T06:28:54;6.10;87.00
55711;DHT22;41612;51.994;5.880;2024-02-26T06:31:23;6.20;86.90
55711;DHT22;41612;51.994;5.880;2024-02-26T06:33:49;6.20;86.90
55711;DHT22;41612;51.994;5.880;2024-02-26T06:36:21;6.10;86.80
55711;DHT22;41612;51.994;5.880;2024-02-26T06:38:47;6.20;86.90
55711;DHT22;41612;51.994;5.880;2024-02-26T06:41:13;6.20;87.00
55711;DHT22;41612;51.994;5.880;2024-02-26T06:43:39;6.10;87.00
55711;DHT22;41612;51.994;5.880;2024-02-26T06:46:06;6.10;86.80
55711;DHT22;41612;51.994;5.880;2024-02-26T06:48:34;6.20;86.90
55711;DHT22;41612;51.994;5.880;2024-02-26T06:51:02;6.20;86.90
55711;DHT22;41612;51.994;5.880;2024-02-26T06:53:31;6.20;86.90
55711;DHT22;41612;51.994;5.880;2024-02-26T06:55:57;6.10;86.60
55711;DHT22;41612;51.994;5.880;2024-02-26T06:58:24;6.10;86.90
55711;DHT22;41612;51.994;5.880;2024-02-26T07:00:50;6.10;86.80
55711;DHT22;41612;51.994;5.880;2024-02-26T07:03:16;6.20;86.90
55711;DHT22;41612;51.994;5.880;2024-02-26T07:05:42;6.10;86.80
55711;DHT22;41612;51.994;5.880;2024-02-26T07:08:10;6.10;86.90
55711;DHT22;41612;51.994;5.880;2024-02-26T07:10:36;6.20;86.80
55711;DHT22;41612;51.994;5.880;2024-02-26T07:13:02;6.20;86.90
55711;DHT22;41612;51.994;5.880;2024-02-26T07:15:28;6.10;86.80
55711;DHT22;41612;51.994;5.880;2024-02-26T07:17:54;6.20;86.80
55711;DHT22;41612;51.994;5.880;2024-02-26T07:20:20;6.20;86.90
55711;DHT22;41612;51.994;5.880;2024-02-26T07:22:50;6.20;86.70
55711;DHT22;41612;51.994;5.880;2024-02-26T07:25:16;6.20;86.70
55711;DHT22;41612;51.994;5.880;2024-02-26T07:27:42;6.20;86.80
55711;DHT22;41612;51.994;5.880;2024-02-26T07:30:08;6.20;86.70
55711;DHT22;41612;51.994;5.880;2024-02-26T07:32:35;6.10;86.70
55711;DHT22;41612;51.994;5.880;2024-02-26T07:35:01;6.20;86.60
55711;DHT22;41612;51.994;5.880;2024-02-26T07:37:27;6.20;86.60
55711;DHT22;41612;51.994;5.880;2024-02-26T07:39:52;6.20;86.60
55711;DHT22;41612;51.994;5.880;2024-02-26T07:42:19;6.20;86.60
55711;DHT22;41612;51.994;5.880;2024-02-26T07:44:45;6.20;86.50
55711;DHT22;41612;51.994;5.880;2024-02-26T07:47:11;6.20;86.60
55711;DHT22;41612;51.994;5.880;2024-02-26T07:49:37;6.20;86.50
55711;DHT22;41612;51.994;5.880;2024-02-26T07:52:02;6.20;86.60
55711;DHT22;41612;51.994;5.880;2024-02-26T07:54:28;6.20;86.60
55711;DHT22;41612;51.994;5.880;2024-02-26T07:56:54;6.20;86.40
55711;DHT22;41612;51.994;5.880;2024-02-26T07:59:20;6.20;86.40
55711;DHT22;41612;51.994;5.880;2024-02-26T08:01:52;6.30;86.40
55711;DHT22;41612;51.994;5.880;2024-02-26T08:04:17;6.20;86.40
55711;DHT22;41612;51.994;5.880;2024-02-26T08:06:43;6.30;86.30
55711;DHT22;41612;51.994;5.880;2024-02-26T08:09:09;6.30;86.30
55711;DHT22;41612;51.994;5.880;2024-02-26T08:11:35;6.20;86.30
55711;DHT22;41612;51.994;5.880;2024-02-26T08:14:00;6.30;86.30
55711;DHT22;41612;51.994;5.880;2024-02-26T08:16:26;6.30;86.30
55711;DHT22;41612;51.994;5.880;2024-02-26T08:18:52;6.30;86.20
55711;DHT22;41612;51.994;5.880;2024-02-26T08:21:18;6.30;86.20
55711;DHT22;41612;51.994;5.880;2024-02-26T08:23:44;6.20;86.20
55711;DHT22;41612;51.994;5.880;2024-02-26T08:26:10;6.20;86.40
55711;DHT22;41612;51.994;5.880;2024-02-26T08:28:37;6.20;86.50
55711;DHT22;41612;51.994;5.880;2024-02-26T08:31:03;6.20;86.40
55711;DHT22;41612;51.994;5.880;2024-02-26T08:33:29;6.20;86.40
55711;DHT22;41612;51.994;5.880;2024-02-26T08:35:56;6.30;86.20
55711;DHT22;41612;51.994;5.880;2024-02-26T08:38:22;6.30;86.20
55711;DHT22;41612;51.994;5.880;2024-02-26T08:40:49;6.30;86.20
55711;DHT22;41612;51.994;5.880;2024-02-26T08:43:14;6.30;86.20
55711;DHT22;41612;51.994;5.880;2024-02-26T08:45:40;6.30;86.20
55711;DHT22;41612;51.994;5.880;2024-02-26T08:48:06;6.30;86.20
55711;DHT22;41612;51.994;5.880;2024-02-26T08:50:35;6.30;86.20
55711;DHT22;41612;51.994;5.880;2024-02-26T08:53:01;6.30;86.20
55711;DHT22;41612;51.994;5.880;2024-02-26T08:55:29;6.30;86.20
55711;DHT22;41612;51.994;5.880;2024-02-26T08:57:54;6.30;86.20
55711;DHT22;41612;51.994;5.880;2024-02-26T09:00:20;6.40;86.00
55711;DHT22;41612;51.994;5.880;2024-02-26T09:02:49;6.40;86.00
55711;DHT22;41612;51.994;5.880;2024-02-26T09:05:15;6.40;86.00
55711;DHT22;41612;51.994;5.880;2024-02-26T09:07:41;6.30;86.10
55711;DHT22;41612;51.994;5.880;2024-02-26T09:10:07;6.30;86.10
55711;DHT22;41612;51.994;5.880;2024-02-26T09:12:36;6.30;86.10
55711;DHT22;41612;51.994;5.880;2024-02-26T09:15:03;6.40;86.10
55711;DHT22;41612;51.994;5.880;2024-02-26T09:17:29;6.40;85.90
55711;DHT22;41612;51.994;5.880;2024-02-26T09:19:54;6.40;85.90
55711;DHT22;41612;51.994;5.880;2024-02-26T09:22:20;6.50;85.80
55711;DHT22;41612;51.994;5.880;2024-02-26T09:24:46;6.50;85.70
55711;DHT22;41612;51.994;5.880;2024-02-26T09:27:12;6.50;85.80
55711;DHT22;41612;51.994;5.880;2024-02-26T09:29:38;6.50;85.80
55711;DHT22;41612;51.994;5.880;2024-02-26T09:32:03;6.40;85.90
55711;DHT22;41612;51.994;5.880;2024-02-26T09:34:29;6.50;85.80
55711;DHT22;41612;51.994;5.880;2024-02-26T09:36:55;6.50;85.60
55711;DHT22;41612;51.994;5.880;2024-02-26T09:39:24;6.60;85.40
55711;DHT22;41612;51.994;5.880;2024-02-26T09:41:49;6.60;85.30
55711;DHT22;41612;51.994;5.880;2024-02-26T09:44:18;6.60;85.30
55711;DHT22;41612;51.994;5.880;2024-02-26T09:46:49;6.60;85.40
55711;DHT22;41612;51.994;5.880;2024-02-26T09:49:19;6.60;85.20
55711;DHT22;41612;51.994;5.880;2024-02-26T09:51:46;6.60;85.30
55711;DHT22;41612;51.994;5.880;2024-02-26T09:54:13;6.60;85.30
55711;DHT22;41612;51.994;5.880;2024-02-26T09:56:40;6.60;85.30
55711;DHT22;41612;51.994;5.880;2024-02-26T09:59:12;6.60;85.30
55711;DHT22;41612;51.994;5.880;2024-02-26T10:01:42;6.60;85.20
55711;DHT22;41612;51.994;5.880;2024-02-26T10:04:10;6.60;85.10
55711;DHT22;41612;51.994;5.880;2024-02-26T10:06:40;6.60;85.30
55711;DHT22;41612;51.994;5.880;2024-02-26T10:09:08;6.60;85.30
55711;DHT22;41612;51.994;5.880;2024-02-26T10:11:35;6.60;85.30
55711;DHT22;41612;51.994;5.880;2024-02-26T10:14:03;6.60;85.30
55711;DHT22;41612;51.994;5.880;2024-02-26T10:16:29;6.70;85.20
55711;DHT22;41612;51.994;5.880;2024-02-26T10:18:55;6.60;85.30
55711;DHT22;41612;51.994;5.880;2024-02-26T10:21:22;6.60;85.20
55711;DHT22;41612;51.994;5.880;2024-02-26T10:23:49;6.60;85.30
55711;DHT22;41612;51.994;5.880;2024-02-26T10:26:17;6.60;85.40
55711;DHT22;41612;51.994;5.880;2024-02-26T10:28:44;6.70;85.20
55711;DHT22;41612;51.994;5.880;2024-02-26T10:31:10;6.70;85.30
55711;DHT22;41612;51.994;5.880;2024-02-26T10:33:37;6.60;85.30
55711;DHT22;41612;51.994;5.880;2024-02-26T10:36:09;6.70;85.30
55711;DHT22;41612;51.994;5.880;2024-02-26T10:38:39;6.70;85.20
55711;DHT22;41612;51.994;5.880;2024-02-26T10:41:06;6.70;85.30
55711;DHT22;41612;51.994;5.880;2024-02-26T10:43:35;6.60;85.40
55711;DHT22;41612;51.994;5.880;2024-02-26T10:46:01;6.60;85.40
55711;DHT22;41612;51.994;5.880;2024-02-26T10:48:29;6.70;85.40
55711;DHT22;41612;51.994;5.880;2024-02-26T10:50:55;6.60;85.40
55711;DHT22;41612;51.994;5.880;2024-02-26T10:53:23;6.70;85.30
55711;DHT22;41612;51.994;5.880;2024-02-26T10:55:56;6.70;85.20
55711;DHT22;41612;51.994;5.880;2024-02-26T10:58:28;6.70;85.10
55711;DHT22;41612;51.994;5.880;2024-02-26T11:00:56;6.80;85.00
55711;DHT22;41612;51.994;5.880;2024-02-26T11:03:25;6.80;85.00
55711;DHT22;41612;51.994;5.880;2024-02-26T11:05:52;6.80;84.80
55711;DHT22;41612;51.994;5.880;2024-02-26T11:08:21;6.80;84.90
55711;DHT22;41612;51.994;5.880;2024-02-26T11:10:53;6.80;84.90
55711;DHT22;41612;51.994;5.880;2024-02-26T11:13:19;6.80;84.80
55711;DHT22;41612;51.994;5.880;2024-02-26T11:15:50;6.80;84.80
55711;DHT22;41612;51.994;5.880;2024-02-26T11:18:19;6.80;84.80
55711;DHT22;41612;51.994;5.880;2024-02-26T11:20:49;6.80;84.80
55711;DHT22;41612;51.994;5.880;2024-02-26T11:23:16;6.80;84.70
55711;DHT22;41612;51.994;5.880;2024-02-26T11:25:42;6.80;84.80
55711;DHT22;41612;51.994;5.880;2024-02-26T11:28:14;6.80;84.80
55711;DHT22;41612;51.994;5.880;2024-02-26T11:30:45;6.80;84.90
55711;DHT22;41612;51.994;5.880;2024-02-26T11:33:15;6.80;84.80
55711;DHT22;41612;51.994;5.880;2024-02-26T11:35:41;6.90;84.70
55711;DHT22;41612;51.994;5.880;2024-02-26T11:38:07;6.90;84.70
55711;DHT22;41612;51.994;5.880;2024-02-26T11:40:38;6.90;84.60
55711;DHT22;41612;51.994;5.880;2024-02-26T11:43:06;6.90;84.70
55711;DHT22;41612;51.994;5.880;2024-02-26T11:48:14;6.90;84.80
55711;DHT22;41612;51.994;5.880;2024-02-26T11:50:47;6.90;84.80
55711;DHT22;41612;51.994;5.880;2024-02-26T11:53:27;6.90;84.70
55711;DHT22;41612;51.994;5.880;2024-02-26T11:59:37;6.90;84.80
55711;DHT22;41612;51.994;5.880;2024-02-26T12:02:07;6.90;84.80
55711;DHT22;41612;51.994;5.880;2024-02-26T12:04:34;6.90;84.60
55711;DHT22;41612;51.994;5.880;2024-02-26T12:07:03;6.90;84.70
55711;DHT22;41612;51.994;5.880;2024-02-26T12:09:41;6.90;84.80
55711;DHT22;41612;51.994;5.880;2024-02-26T12:12:08;6.90;84.70
55711;DHT22;41612;51.994;5.880;2024-02-26T12:14:40;6.90;84.80
55711;DHT22;41612;51.994;5.880;2024-02-26T12:17:07;6.90;84.70
55711;DHT22;41612;51.994;5.880;2024-02-26T12:19:44;6.90;84.70
55711;DHT22;41612;51.994;5.880;2024-02-26T12:22:13;7.00;84.70
55711;DHT22;41612;51.994;5.880;2024-02-26T12:24:39;7.00;84.60
55711;DHT22;41612;51.994;5.880;2024-02-26T12:27:05;7.00;84.40
55711;DHT22;41612;51.994;5.880;2024-02-26T12:29:32;7.00;84.40
55711;DHT22;41612;51.994;5.880;2024-02-26T12:31:58;7.00;84.40
55711;DHT22;41612;51.994;5.880;2024-02-26T12:34:24;7.00;84.40
55711;DHT22;41612;51.994;5.880;2024-02-26T12:36:53;7.10;84.40
55711;DHT22;41612;51.994;5.880;2024-02-26T12:39:19;7.00;84.40
55711;DHT22;41612;51.994;5.880;2024-02-26T12:41:48;7.00;84.30
55711;DHT22;41612;51.994;5.880;2024-02-26T12:44:17;7.10;84.30
55711;DHT22;41612;51.994;5.880;2024-02-26T12:46:43;7.10;84.10
55711;DHT22;41612;51.994;5.880;2024-02-26T12:49:15;7.20;84.10
55711;DHT22;41612;51.994;5.880;2024-02-26T12:51:44;7.20;84.00
55711;DHT22;41612;51.994;5.880;2024-02-26T12:54:13;7.20;84.00
55711;DHT22;41612;51.994;5.880;2024-02-26T12:56:39;7.20;83.80
55711;DHT22;41612;51.994;5.880;2024-02-26T12:59:06;7.30;83.60
55711;DHT22;41612;51.994;5.880;2024-02-26T13:01:32;7.30;83.50
55711;DHT22;41612;51.994;5.880;2024-02-26T13:04:04;7.30;83.50
55711;DHT22;41612;51.994;5.880;2024-02-26T13:06:32;7.30;83.50
55711;DHT22;41612;51.994;5.880;2024-02-26T13:08:59;7.30;83.60
55711;DHT22;41612;51.994;5.880;2024-02-26T13:11:29;7.30;83.50
55711;DHT22;41612;51.994;5.880;2024-02-26T13:13:57;7.30;83.50
55711;DHT22;41612;51.994;5.880;2024-02-26T13:16:25;7.30;83.60
55711;DHT22;41612;51.994;5.880;2024-02-26T13:18:53;7.30;83.60
55711;DHT22;41612;51.994;5.880;2024-02-26T13:21:19;7.30;83.50
55711;DHT22;41612;51.994;5.880;2024-02-26T13:23:49;7.30;83.60
55711;DHT22;41612;51.994;5.880;2024-02-26T13:26:16;7.30;83.50
55711;DHT22;41612;51.994;5.880;2024-02-26T13:28:44;7.40;83.50
55711;DHT22;41612;51.994;5.880;2024-02-26T13:31:19;7.40;83.30
55711;DHT22;41612;51.994;5.880;2024-02-26T13:33:46;7.40;83.30
55711;DHT22;41612;51.994;5.880;2024-02-26T13:36:15;7.50;83.10
55711;DHT22;41612;51.994;5.880;2024-02-26T13:38:51;7.50;83.00
55711;DHT22;41612;51.994;5.880;2024-02-26T13:41:18;7.50;82.80
55711;DHT22;41612;51.994;5.880;2024-02-26T13:43:47;7.50;82.90
55711;DHT22;41612;51.994;5.880;2024-02-26T13:46:13;7.50;83.00
55711;DHT22;41612;51.994;5.880;2024-02-26T13:48:43;7.60;82.70
55711;DHT22;41612;51.994;5.880;2024-02-26T13:51:09;7.50;82.80
55711;DHT22;41612;51.994;5.880;2024-02-26T13:53:35;7.50;82.80
55711;DHT22;41612;51.994;5.880;2024-02-26T13:56:01;7.60;82.90
55711;DHT22;41612;51.994;5.880;2024-02-26T13:58:27;7.50;82.80
55711;DHT22;41612;51.994;5.880;2024-02-26T14:00:55;7.50;82.80
55711;DHT22;41612;51.994;5.880;2024-02-26T14:03:21;7.60;82.80
55711;DHT22;41612;51.994;5.880;2024-02-26T14:05:49;7.60;82.80
55711;DHT22;41612;51.994;5.880;2024-02-26T14:08:15;7.60;82.70
55711;DHT22;41612;51.994;5.880;2024-02-26T14:10:44;7.60;82.70
55711;DHT22;41612;51.994;5.880;2024-02-26T14:13:15;7.60;82.80
55711;DHT22;41612;51.994;5.880;2024-02-26T14:15:43;7.60;82.70
55711;DHT22;41612;51.994;5.880;2024-02-26T14:18:13;7.60;82.70
55711;DHT22;41612;51.994;5.880;2024-02-26T14:20:39;7.60;82.70
55711;DHT22;41612;51.994;5.880;2024-02-26T14:23:06;7.70;82.50
55711;DHT22;41612;51.994;5.880;2024-02-26T14:25:34;7.70;82.50
55711;DHT22;41612;51.994;5.880;2024-02-26T14:28:08;7.70;82.40
55711;DHT22;41612;51.994;5.880;2024-02-26T14:30:40;7.80;82.10
55711;DHT22;41612;51.994;5.880;2024-02-26T14:33:06;7.70;82.20
55711;DHT22;41612;51.994;5.880;2024-02-26T14:35:32;7.80;82.20
55711;DHT22;41612;51.994;5.880;2024-02-26T14:38:00;7.80;82.20
55711;DHT22;41612;51.994;5.880;2024-02-26T14:40:27;7.80;82.10
55711;DHT22;41612;51.994;5.880;2024-02-26T14:42:52;7.80;82.00
55711;DHT22;41612;51.994;5.880;2024-02-26T14:45:22;7.80;82.00
55711;DHT22;41612;51.994;5.880;2024-02-26T14:47:48;7.70;82.20
55711;DHT22;41612;51.994;5.880;2024-02-26T14:50:19;7.70;82.30
55711;DHT22;41612;51.994;5.880;2024-02-26T14:52:49;7.70;82.50
55711;DHT22;41612;51.994;5.880;2024-02-26T14:55:15;7.70;82.50
55711;DHT22;41612;51.994;5.880;2024-02-26T14:57:41;7.70;82.60
55711;DHT22;41612;51.994;5.880;2024-02-26T15:00:07;7.70;82.60
55711;DHT22;41612;51.994;5.880;2024-02-26T15:02:37;7.70;82.70
55711;DHT22;41612;51.994;5.880;2024-02-26T15:05:05;7.70;82.70
55711;DHT22;41612;51.994;5.880;2024-02-26T15:07:38;7.70;82.80
55711;DHT22;41612;51.994;5.880;2024-02-26T15:10:06;7.70;82.80
55711;DHT22;41612;51.994;5.880;2024-02-26T15:12:34;7.60;82.80
55711;DHT22;41612;51.994;5.880;2024-02-26T15:15:00;7.50;83.10
55711;DHT22;41612;51.994;5.880;2024-02-26T15:17:28;7.50;83.10
55711;DHT22;41612;51.994;5.880;2024-02-26T15:20:00;7.50;83.30
55711;DHT22;41612;51.994;5.880;2024-02-26T15:22:27;7.40;83.60
55711;DHT22;41612;51.994;5.880;2024-02-26T15:24:54;7.40;83.60
55711;DHT22;41612;51.994;5.880;2024-02-26T15:27:25;7.30;83.90
55711;DHT22;41612;51.994;5.880;2024-02-26T15:29:54;7.30;84.10
55711;DHT22;41612;51.994;5.880;2024-02-26T15:32:27;7.30;84.20
55711;DHT22;41612;51.994;5.880;2024-02-26T15:34:53;7.20;84.40
55711;DHT22;41612;51.994;5.880;2024-02-26T15:37:22;7.20;84.30
55711;DHT22;41612;51.994;5.880;2024-02-26T15:39:50;7.20;84.60
55711;DHT22;41612;51.994;5.880;2024-02-26T15:42:18;7.20;84.70
55711;DHT22;41612;51.994;5.880;2024-02-26T15:44:44;7.20;84.80
55711;DHT22;41612;51.994;5.880;2024-02-26T15:47:18;7.10;84.80
55711;DHT22;41612;51.994;5.880;2024-02-26T15:49:44;7.10;84.80
55711;DHT22;41612;51.994;5.880;2024-02-26T15:52:22;7.10;84.90
55711;DHT22;41612;51.994;5.880;2024-02-26T15:54:56;7.10;84.90
55711;DHT22;41612;51.994;5.880;2024-02-26T15:57:25;7.10;85.00